<?xml version="1.0" encoding="UTF-8" standalone="no" ?>
<gpx xmlns="http://www.topografix.com/GPX/1/1" xmlns:xsi="http://www.w3.org/2001/XMLSchema-instance" xsi:schemaLocation="http://www.topografix.com/GPX/1/1 http://www.topografix.com/GPX/1/1/gpx.xsd" version="1.1" creator="VisuGPX - https://www.visugpx.com">
  <metadata>
    <name>VacancesDricouZoe</name>
  </metadata>
  <trk>
    <name><![CDATA[Journal actif: 2021-07-07 15:42]]></name>
    <trkseg>
      <trkpt lat="43.88855" lon="-1.1336">
        <ele>47.72</ele>
        <time>2021-07-07T17:42:33Z</time>
      </trkpt>
      <trkpt lat="43.89065" lon="-1.1342">
        <ele>50.61</ele>
        <time>2021-07-07T17:42:42Z</time>
      </trkpt>
      <trkpt lat="43.89287" lon="-1.13423">
        <ele>53.01</ele>
        <time>2021-07-07T17:42:51Z</time>
      </trkpt>
      <trkpt lat="43.89512" lon="-1.13358">
        <ele>55.89</ele>
        <time>2021-07-07T17:43:00Z</time>
      </trkpt>
      <trkpt lat="43.89754" lon="-1.13209">
        <ele>56.37</ele>
        <time>2021-07-07T17:43:10Z</time>
      </trkpt>
      <trkpt lat="43.90263" lon="-1.12825">
        <ele>60.22</ele>
        <time>2021-07-07T17:43:31Z</time>
      </trkpt>
      <trkpt lat="43.90612" lon="-1.12559">
        <ele>62.14</ele>
        <time>2021-07-07T17:43:46Z</time>
      </trkpt>
      <trkpt lat="43.91106" lon="-1.12184">
        <ele>65.03</ele>
        <time>2021-07-07T17:44:07Z</time>
      </trkpt>
      <trkpt lat="43.91603" lon="-1.11811">
        <ele>67.43</ele>
        <time>2021-07-07T17:44:28Z</time>
      </trkpt>
      <trkpt lat="43.91907" lon="-1.11562">
        <ele>68.39</ele>
        <time>2021-07-07T17:44:43Z</time>
      </trkpt>
      <trkpt lat="43.921" lon="-1.11333">
        <ele>67.91</ele>
        <time>2021-07-07T17:44:53Z</time>
      </trkpt>
      <trkpt lat="43.92408" lon="-1.10908">
        <ele>70.79</ele>
        <time>2021-07-07T17:45:10Z</time>
      </trkpt>
      <trkpt lat="43.92736" lon="-1.10461">
        <ele>73.2</ele>
        <time>2021-07-07T17:45:28Z</time>
      </trkpt>
      <trkpt lat="43.93019" lon="-1.10073">
        <ele>73.2</ele>
        <time>2021-07-07T17:45:44Z</time>
      </trkpt>
      <trkpt lat="43.93234" lon="-1.0978">
        <ele>72.72</ele>
        <time>2021-07-07T17:45:57Z</time>
      </trkpt>
      <trkpt lat="43.93486" lon="-1.09434">
        <ele>74.64</ele>
        <time>2021-07-07T17:46:11Z</time>
      </trkpt>
      <trkpt lat="43.9385" lon="-1.08941">
        <ele>77.52</ele>
        <time>2021-07-07T17:46:30Z</time>
      </trkpt>
      <trkpt lat="43.94185" lon="-1.08477">
        <ele>79.45</ele>
        <time>2021-07-07T17:46:48Z</time>
      </trkpt>
      <trkpt lat="43.94464" lon="-1.08097">
        <ele>79.45</ele>
        <time>2021-07-07T17:47:03Z</time>
      </trkpt>
      <trkpt lat="43.94807" lon="-1.07629">
        <ele>81.37</ele>
        <time>2021-07-07T17:47:21Z</time>
      </trkpt>
      <trkpt lat="43.95213" lon="-1.07076">
        <ele>81.85</ele>
        <time>2021-07-07T17:47:42Z</time>
      </trkpt>
      <trkpt lat="43.95484" lon="-1.06734">
        <ele>81.37</ele>
        <time>2021-07-07T17:47:57Z</time>
      </trkpt>
      <trkpt lat="43.95675" lon="-1.06584">
        <ele>80.89</ele>
        <time>2021-07-07T17:48:05Z</time>
      </trkpt>
      <trkpt lat="43.95903" lon="-1.06483">
        <ele>78.48</ele>
        <time>2021-07-07T17:48:14Z</time>
      </trkpt>
      <trkpt lat="43.96116" lon="-1.06453">
        <ele>77.52</ele>
        <time>2021-07-07T17:48:22Z</time>
      </trkpt>
      <trkpt lat="43.96659" lon="-1.06434">
        <ele>77.52</ele>
        <time>2021-07-07T17:48:42Z</time>
      </trkpt>
      <trkpt lat="43.96952" lon="-1.06372">
        <ele>78.97</ele>
        <time>2021-07-07T17:48:52Z</time>
      </trkpt>
      <trkpt lat="43.97157" lon="-1.06256">
        <ele>79.45</ele>
        <time>2021-07-07T17:49:00Z</time>
      </trkpt>
      <trkpt lat="43.97321" lon="-1.06103">
        <ele>79.93</ele>
        <time>2021-07-07T17:49:08Z</time>
      </trkpt>
      <trkpt lat="43.97481" lon="-1.05878">
        <ele>81.37</ele>
        <time>2021-07-07T17:49:16Z</time>
      </trkpt>
      <trkpt lat="43.97621" lon="-1.05571">
        <ele>82.81</ele>
        <time>2021-07-07T17:49:25Z</time>
      </trkpt>
      <trkpt lat="43.97785" lon="-1.05239">
        <ele>82.81</ele>
        <time>2021-07-07T17:49:35Z</time>
      </trkpt>
      <trkpt lat="43.97955" lon="-1.05016">
        <ele>83.29</ele>
        <time>2021-07-07T17:49:43Z</time>
      </trkpt>
      <trkpt lat="43.98307" lon="-1.04709">
        <ele>83.29</ele>
        <time>2021-07-07T17:49:57Z</time>
      </trkpt>
      <trkpt lat="43.98827" lon="-1.04273">
        <ele>83.77</ele>
        <time>2021-07-07T17:50:18Z</time>
      </trkpt>
      <trkpt lat="43.99236" lon="-1.03928">
        <ele>84.73</ele>
        <time>2021-07-07T17:50:35Z</time>
      </trkpt>
      <trkpt lat="43.99594" lon="-1.03626">
        <ele>84.73</ele>
        <time>2021-07-07T17:50:50Z</time>
      </trkpt>
      <trkpt lat="44.00044" lon="-1.03247">
        <ele>86.18</ele>
        <time>2021-07-07T17:51:08Z</time>
      </trkpt>
      <trkpt lat="44.0065" lon="-1.02735">
        <ele>83.29</ele>
        <time>2021-07-07T17:51:32Z</time>
      </trkpt>
      <trkpt lat="44.01243" lon="-1.02236">
        <ele>82.33</ele>
        <time>2021-07-07T17:51:56Z</time>
      </trkpt>
      <trkpt lat="44.01661" lon="-1.01861">
        <ele>81.37</ele>
        <time>2021-07-07T17:52:13Z</time>
      </trkpt>
      <trkpt lat="44.01904" lon="-1.01652">
        <ele>80.89</ele>
        <time>2021-07-07T17:52:23Z</time>
      </trkpt>
      <trkpt lat="44.0212" lon="-1.01549">
        <ele>78.97</ele>
        <time>2021-07-07T17:52:31Z</time>
      </trkpt>
      <trkpt lat="44.02375" lon="-1.01508">
        <ele>78</ele>
        <time>2021-07-07T17:52:39Z</time>
      </trkpt>
      <trkpt lat="44.02606" lon="-1.01544">
        <ele>76.08</ele>
        <time>2021-07-07T17:52:48Z</time>
      </trkpt>
      <trkpt lat="44.03208" lon="-1.01683">
        <ele>75.6</ele>
        <time>2021-07-07T17:53:09Z</time>
      </trkpt>
      <trkpt lat="44.03438" lon="-1.01681">
        <ele>73.2</ele>
        <time>2021-07-07T17:53:17Z</time>
      </trkpt>
      <trkpt lat="44.03669" lon="-1.0161">
        <ele>73.2</ele>
        <time>2021-07-07T17:53:25Z</time>
      </trkpt>
      <trkpt lat="44.04001" lon="-1.01419">
        <ele>64.55</ele>
        <time>2021-07-07T17:53:37Z</time>
      </trkpt>
      <trkpt lat="44.04437" lon="-1.01161">
        <ele>62.62</ele>
        <time>2021-07-07T17:53:53Z</time>
      </trkpt>
      <trkpt lat="44.05145" lon="-1.00741">
        <ele>63.1</ele>
        <time>2021-07-07T17:54:18Z</time>
      </trkpt>
      <trkpt lat="44.05552" lon="-1.00518">
        <ele>67.43</ele>
        <time>2021-07-07T17:54:34Z</time>
      </trkpt>
      <trkpt lat="44.05785" lon="-1.00473">
        <ele>68.87</ele>
        <time>2021-07-07T17:54:42Z</time>
      </trkpt>
      <trkpt lat="44.06051" lon="-1.00498">
        <ele>68.39</ele>
        <time>2021-07-07T17:54:51Z</time>
      </trkpt>
      <trkpt lat="44.06557" lon="-1.00572">
        <ele>67.91</ele>
        <time>2021-07-07T17:55:08Z</time>
      </trkpt>
      <trkpt lat="44.07099" lon="-1.0054">
        <ele>65.03</ele>
        <time>2021-07-07T17:55:26Z</time>
      </trkpt>
      <trkpt lat="44.07555" lon="-1.00488">
        <ele>70.31</ele>
        <time>2021-07-07T17:55:42Z</time>
      </trkpt>
      <trkpt lat="44.07885" lon="-1.00358">
        <ele>69.35</ele>
        <time>2021-07-07T17:55:54Z</time>
      </trkpt>
      <trkpt lat="44.08635" lon="-1.00036">
        <ele>69.35</ele>
        <time>2021-07-07T17:56:21Z</time>
      </trkpt>
      <trkpt lat="44.09583" lon="-0.99624">
        <ele>71.27</ele>
        <time>2021-07-07T17:56:55Z</time>
      </trkpt>
      <trkpt lat="44.10306" lon="-0.9931">
        <ele>72.72</ele>
        <time>2021-07-07T17:57:21Z</time>
      </trkpt>
      <trkpt lat="44.11063" lon="-0.98978">
        <ele>73.68</ele>
        <time>2021-07-07T17:57:47Z</time>
      </trkpt>
      <trkpt lat="44.11654" lon="-0.9872">
        <ele>73.2</ele>
        <time>2021-07-07T17:58:09Z</time>
      </trkpt>
      <trkpt lat="44.12217" lon="-0.98473">
        <ele>71.27</ele>
        <time>2021-07-07T17:58:29Z</time>
      </trkpt>
      <trkpt lat="44.12777" lon="-0.98228">
        <ele>71.27</ele>
        <time>2021-07-07T17:58:49Z</time>
      </trkpt>
      <trkpt lat="44.13251" lon="-0.98018">
        <ele>69.83</ele>
        <time>2021-07-07T17:59:08Z</time>
      </trkpt>
      <trkpt lat="44.13481" lon="-0.97867">
        <ele>72.72</ele>
        <time>2021-07-07T17:59:17Z</time>
      </trkpt>
      <trkpt lat="44.13711" lon="-0.97637">
        <ele>73.68</ele>
        <time>2021-07-07T17:59:26Z</time>
      </trkpt>
      <trkpt lat="44.14075" lon="-0.97227">
        <ele>71.76</ele>
        <time>2021-07-07T17:59:44Z</time>
      </trkpt>
      <trkpt lat="44.14304" lon="-0.97054">
        <ele>69.83</ele>
        <time>2021-07-07T17:59:53Z</time>
      </trkpt>
      <trkpt lat="44.14593" lon="-0.96843">
        <ele>70.79</ele>
        <time>2021-07-07T18:00:04Z</time>
      </trkpt>
      <trkpt lat="44.14772" lon="-0.96626">
        <ele>73.2</ele>
        <time>2021-07-07T18:00:12Z</time>
      </trkpt>
      <trkpt lat="44.15004" lon="-0.96259">
        <ele>71.76</ele>
        <time>2021-07-07T18:00:24Z</time>
      </trkpt>
      <trkpt lat="44.15188" lon="-0.96053">
        <ele>74.16</ele>
        <time>2021-07-07T18:00:32Z</time>
      </trkpt>
      <trkpt lat="44.1543" lon="-0.95888">
        <ele>74.64</ele>
        <time>2021-07-07T18:00:41Z</time>
      </trkpt>
      <trkpt lat="44.16019" lon="-0.95533">
        <ele>72.72</ele>
        <time>2021-07-07T18:01:02Z</time>
      </trkpt>
      <trkpt lat="44.16488" lon="-0.95254">
        <ele>71.76</ele>
        <time>2021-07-07T18:01:21Z</time>
      </trkpt>
      <trkpt lat="44.17022" lon="-0.94937">
        <ele>70.79</ele>
        <time>2021-07-07T18:01:42Z</time>
      </trkpt>
      <trkpt lat="44.17517" lon="-0.94642">
        <ele>70.79</ele>
        <time>2021-07-07T18:02:01Z</time>
      </trkpt>
      <trkpt lat="44.18173" lon="-0.94253">
        <ele>69.83</ele>
        <time>2021-07-07T18:02:25Z</time>
      </trkpt>
      <trkpt lat="44.18644" lon="-0.93971">
        <ele>70.79</ele>
        <time>2021-07-07T18:02:44Z</time>
      </trkpt>
      <trkpt lat="44.19263" lon="-0.93601">
        <ele>68.87</ele>
        <time>2021-07-07T18:03:07Z</time>
      </trkpt>
      <trkpt lat="44.19749" lon="-0.93311">
        <ele>68.87</ele>
        <time>2021-07-07T18:03:25Z</time>
      </trkpt>
      <trkpt lat="44.20257" lon="-0.93007">
        <ele>72.24</ele>
        <time>2021-07-07T18:03:44Z</time>
      </trkpt>
      <trkpt lat="44.20689" lon="-0.92764">
        <ele>69.35</ele>
        <time>2021-07-07T18:04:00Z</time>
      </trkpt>
      <trkpt lat="44.20946" lon="-0.92685">
        <ele>66.47</ele>
        <time>2021-07-07T18:04:09Z</time>
      </trkpt>
    </trkseg>
  </trk>
</gpx>